Terminal Aerodrome Forecast
Issued by NWS

Current Version | Previous Version | Text Only | Print | Product List | Glossary On
Versions: 1 2 3 4 5 6 7 8 9 10 11 12
455
FTUS45 KABQ 311128
TAFGUP
TAF
KGUP 311128Z 3112/0112 VRB06KT P6SM FEW090 SCT150
     FM311800 36007KT P6SM SCT080 SCT150
     FM312000 02010KT P6SM VCSH BKN080 BKN120
     FM010200 06006KT P6SM BKN100=

USA.gov is the U.S. government's official web portal to all federal, state and local government web resources and services.